This is the latest recevied weather packets stored in our database for station/object AD7ZD. If no packets are shown the sender has not sent any weather packets the latest 10 day(s).
| Time | Temp. | Humidity | Pressure | Rain* | Wind** | Luminosity | Snow |
|---|---|---|---|---|---|---|---|
| 1777636453 | 3.89° C | 55% | 1015.9 hPa | 0 mm | - | 0 W/m² | - |
| 1777636149 | 3.89° C | 54% | 1015.8 hPa | 0 mm | - | 0 W/m² | - |
| 1777635844 | 3.33° C | 55% | 1015.8 hPa | 0 mm | - | 0 W/m² | - |
| 1777635540 | 3.89° C | 54% | 1015.8 hPa | 0 mm | - | 0 W/m² | - |
| 1777635237 | 4.44° C | 54% | 1015.8 hPa | 0 mm | - | 0 W/m² | - |
| 1777634934 | 5° C | 52% | 1015.5 hPa | 0 mm | - | 0 W/m² | - |
| 1777634630 | 4.44° C | 56% | 1015.7 hPa | 0 mm | - | 0 W/m² | - |
| 1777634328 | 3.89° C | 55% | 1015.5 hPa | 0 mm | - | 0 W/m² | - |
| 1777634024 | 4.44° C | 57% | 1015.5 hPa | 0 mm | - | 0 W/m² | - |
| 1777633721 | 3.89° C | 57% | 1015.5 hPa | 0 mm | - | 0 W/m² | - |
| 1777633419 | 4.44° C | 56% | 1015.3 hPa | 0 mm | - | 0 W/m² | - |
| 1777633117 | 5° C | 56% | 1015.7 hPa | 0 mm | - | 0 W/m² | - |
| 1777632812 | 5.56° C | 53% | 1015.4 hPa | 0 mm | - | 0 W/m² | - |
| 1777632509 | 4.44° C | 52% | 1015.5 hPa | 0 mm | - | 0 W/m² | - |
| 1777632206 | 5.56° C | 44% | 1015.3 hPa | 0 mm | - | 0 W/m² | - |
| 1777631903 | 5.56° C | 45% | 1015.2 hPa | 0 mm | - | 0 W/m² | - |
| 1777631602 | 5.56° C | 45% | 1015.1 hPa | 0 mm | - | 0 W/m² | - |
| 1777631299 | 5° C | 46% | 1015.1 hPa | 0 mm | - | 0 W/m² | - |
| 1777630996 | 5° C | 47% | 1015.2 hPa | 0 mm | - | 0 W/m² | - |
| 1777630691 | 5° C | 50% | 1015.1 hPa | 0 mm | - | 0 W/m² | - |
| 1777630389 | 5° C | 50% | 1015.1 hPa | 0 mm | - | 0 W/m² | - |
| 1777630086 | 5° C | 52% | 1015.1 hPa | 0 mm | - | 0 W/m² | - |
| 1777629783 | 5.56° C | 51% | 1015.1 hPa | 0 mm | - | 0 W/m² | - |
| 1777629480 | 5.56° C | 51% | 1015 hPa | 0 mm | - | 0 W/m² | - |
| 1777629176 | 5.56° C | 51% | 1015.1 hPa | 0 mm | - | 0 W/m² | - |
* Rain latest hour (hover to see other rain measurements)
** Current wind speed in m/s (hover to see current wind gust speed)